sensor_id;sensor_type;location;lat;lon;timestamp;pressure;altitude;pressure_sealevel;temperature;humidity
64602;BME280;51013;42.630;23.192;2022-11-15T00:00:00;92728.50;;;1.51;84.33
64602;BME280;51013;42.630;23.192;2022-11-15T00:02:27;92879.44;;;2.35;84.31
64602;BME280;51013;42.630;23.192;2022-11-15T00:04:54;92858.94;;;2.34;84.61
64602;BME280;51013;42.630;23.192;2022-11-15T00:07:21;92819.00;;;2.06;84.82
64602;BME280;51013;42.630;23.192;2022-11-15T00:09:48;92772.44;;;1.61;85.05
64602;BME280;51013;42.630;23.192;2022-11-15T00:12:17;92851.19;;;2.29;84.45
64602;BME280;51013;42.630;23.192;2022-11-15T00:14:44;92770.84;;;1.65;85.13
64602;BME280;51013;42.630;23.192;2022-11-15T00:17:11;92851.69;;;2.31;85.38
64602;BME280;51013;42.630;23.192;2022-11-15T00:19:38;92846.84;;;2.24;85.08
64602;BME280;51013;42.630;23.192;2022-11-15T00:22:04;92849.94;;;2.26;85.23
64602;BME280;51013;42.630;23.192;2022-11-15T00:24:31;92849.19;;;2.20;84.83
64602;BME280;51013;42.630;23.192;2022-11-15T00:26:58;92795.78;;;1.90;84.65
64602;BME280;51013;42.630;23.192;2022-11-15T00:29:26;92770.59;;;1.67;84.91
64602;BME280;51013;42.630;23.192;2022-11-15T00:31:53;92813.06;;;2.00;85.18
64602;BME280;51013;42.630;23.192;2022-11-15T00:34:22;92781.91;;;1.76;85.10
64602;BME280;51013;42.630;23.192;2022-11-15T00:36:50;92845.19;;;2.04;85.12
64602;BME280;51013;42.630;23.192;2022-11-15T00:39:17;92814.97;;;1.89;85.31
64602;BME280;51013;42.630;23.192;2022-11-15T00:41:44;92610.56;;;0.60;85.45
64602;BME280;51013;42.630;23.192;2022-11-15T00:44:11;92806.72;;;1.82;86.05
64602;BME280;51013;42.630;23.192;2022-11-15T00:46:39;92850.53;;;2.13;86.29
64602;BME280;51013;42.630;23.192;2022-11-15T00:49:06;92680.38;;;1.05;85.32
64602;BME280;51013;42.630;23.192;2022-11-15T00:51:33;92780.41;;;1.70;84.87
64602;BME280;51013;42.630;23.192;2022-11-15T00:54:00;92845.69;;;2.06;85.40
64602;BME280;51013;42.630;23.192;2022-11-15T00:56:27;92830.69;;;2.03;85.75
64602;BME280;51013;42.630;23.192;2022-11-15T00:58:54;92831.44;;;2.04;85.57
64602;BME280;51013;42.630;23.192;2022-11-15T01:01:21;92683.53;;;1.02;84.99
64602;BME280;51013;42.630;23.192;2022-11-15T01:03:50;92824.72;;;2.03;85.16
64602;BME280;51013;42.630;23.192;2022-11-15T01:06:17;92587.91;;;0.42;85.17
64602;BME280;51013;42.630;23.192;2022-11-15T01:08:45;92767.22;;;1.66;85.45
64602;BME280;51013;42.630;23.192;2022-11-15T01:11:12;92676.84;;;0.96;85.60
64602;BME280;51013;42.630;23.192;2022-11-15T01:13:39;92727.84;;;1.30;85.38
64602;BME280;51013;42.630;23.192;2022-11-15T01:16:08;92794.31;;;1.79;85.56
64602;BME280;51013;42.630;23.192;2022-11-15T01:18:36;92838.22;;;1.99;86.10
64602;BME280;51013;42.630;23.192;2022-11-15T01:21:09;92821.41;;;1.97;85.98
64602;BME280;51013;42.630;23.192;2022-11-15T01:23:36;92838.66;;;2.07;85.64
64602;BME280;51013;42.630;23.192;2022-11-15T01:26:05;92836.88;;;2.07;84.91
64602;BME280;51013;42.630;23.192;2022-11-15T01:28:34;92769.88;;;1.56;84.72
64602;BME280;51013;42.630;23.192;2022-11-15T01:31:02;92834.94;;;1.89;85.50
64602;BME280;51013;42.630;23.192;2022-11-15T01:33:30;92706.25;;;1.10;85.63
64602;BME280;51013;42.630;23.192;2022-11-15T01:35:57;92831.28;;;1.90;86.44
64602;BME280;51013;42.630;23.192;2022-11-15T01:38:25;92683.31;;;0.93;86.30
64602;BME280;51013;42.630;23.192;2022-11-15T01:40:52;92823.00;;;1.93;86.33
64602;BME280;51013;42.630;23.192;2022-11-15T01:43:21;92826.59;;;1.97;86.38
64602;BME280;51013;42.630;23.192;2022-11-15T01:45:51;92776.53;;;1.67;86.35
64602;BME280;51013;42.630;23.192;2022-11-15T01:48:22;92784.00;;;1.74;86.06
64602;BME280;51013;42.630;23.192;2022-11-15T01:50:52;92786.56;;;1.79;86.13
64602;BME280;51013;42.630;23.192;2022-11-15T01:53:21;92732.72;;;1.36;86.66
64602;BME280;51013;42.630;23.192;2022-11-15T01:55:52;92742.50;;;1.45;86.39
64602;BME280;51013;42.630;23.192;2022-11-15T01:58:21;92742.09;;;1.32;86.39
64602;BME280;51013;42.630;23.192;2022-11-15T02:00:49;92759.31;;;1.47;86.42
64602;BME280;51013;42.630;23.192;2022-11-15T02:03:17;92793.34;;;1.70;86.99
64602;BME280;51013;42.630;23.192;2022-11-15T02:05:44;92527.44;;;-0.02;86.31
64602;BME280;51013;42.630;23.192;2022-11-15T02:08:11;92825.84;;;1.91;86.61
64602;BME280;51013;42.630;23.192;2022-11-15T02:10:46;92767.56;;;1.54;86.91
64602;BME280;51013;42.630;23.192;2022-11-15T02:13:15;92805.72;;;1.78;86.77
64602;BME280;51013;42.630;23.192;2022-11-15T02:15:52;92819.41;;;1.89;86.38
64602;BME280;51013;42.630;23.192;2022-11-15T02:18:26;92787.47;;;1.59;86.04
64602;BME280;51013;42.630;23.192;2022-11-15T02:21:12;92701.84;;;1.11;86.32
64602;BME280;51013;42.630;23.192;2022-11-15T02:24:10;92692.66;;;0.89;86.55
64602;BME280;51013;42.630;23.192;2022-11-15T02:30:19;92813.00;;;1.76;86.02
64602;BME280;51013;42.630;23.192;2022-11-15T02:32:51;92803.94;;;1.78;86.00
64602;BME280;51013;42.630;23.192;2022-11-15T02:35:26;92763.19;;;1.50;86.01
64602;BME280;51013;42.630;23.192;2022-11-15T02:37:56;92490.88;;;-0.29;85.71
64602;BME280;51013;42.630;23.192;2022-11-15T02:40:33;92781.47;;;1.64;85.90
64602;BME280;51013;42.630;23.192;2022-11-15T02:43:08;92801.34;;;1.78;85.75
64602;BME280;51013;42.630;23.192;2022-11-15T02:46:00;92776.28;;;1.64;86.02
64602;BME280;51013;42.630;23.192;2022-11-15T02:48:30;92794.09;;;1.70;86.16
64602;BME280;51013;42.630;23.192;2022-11-15T02:50:58;92775.09;;;1.51;85.94
64602;BME280;51013;42.630;23.192;2022-11-15T02:53:26;92744.13;;;1.35;85.76
64602;BME280;51013;42.630;23.192;2022-11-15T02:55:54;92799.84;;;1.67;85.93
64602;BME280;51013;42.630;23.192;2022-11-15T02:58:44;92808.94;;;1.65;85.84
64602;BME280;51013;42.630;23.192;2022-11-15T03:01:23;92822.09;;;1.68;85.90
64602;BME280;51013;42.630;23.192;2022-11-15T03:04:02;92816.16;;;1.68;86.43
64602;BME280;51013;42.630;23.192;2022-11-15T03:06:35;92801.13;;;1.70;86.75
64602;BME280;51013;42.630;23.192;2022-11-15T03:09:10;92604.28;;;0.27;86.65
64602;BME280;51013;42.630;23.192;2022-11-15T03:11:44;92713.25;;;1.10;86.89
64602;BME280;51013;42.630;23.192;2022-11-15T03:14:21;92790.25;;;1.68;87.03
64602;BME280;51013;42.630;23.192;2022-11-15T03:17:00;92638.22;;;0.65;86.73
64602;BME280;51013;42.630;23.192;2022-11-15T03:19:33;92781.72;;;1.67;87.03
64602;BME280;51013;42.630;23.192;2022-11-15T03:22:04;92786.91;;;1.62;86.92
64602;BME280;51013;42.630;23.192;2022-11-15T03:24:35;92785.56;;;1.70;86.84
64602;BME280;51013;42.630;23.192;2022-11-15T03:27:03;92792.84;;;1.68;86.87
64602;BME280;51013;42.630;23.192;2022-11-15T03:29:33;92625.84;;;0.57;86.62
64602;BME280;51013;42.630;23.192;2022-11-15T03:32:11;92776.78;;;1.66;86.50
64602;BME280;51013;42.630;23.192;2022-11-15T03:34:42;92772.16;;;1.63;86.90
64602;BME280;51013;42.630;23.192;2022-11-15T03:37:13;92688.69;;;1.02;86.78
64602;BME280;51013;42.630;23.192;2022-11-15T03:39:41;92766.00;;;1.53;87.02
64602;BME280;51013;42.630;23.192;2022-11-15T03:42:18;92728.22;;;1.13;87.77
64602;BME280;51013;42.630;23.192;2022-11-15T03:44:52;92766.06;;;1.48;87.76
64602;BME280;51013;42.630;23.192;2022-11-15T03:47:29;92666.31;;;0.82;87.33
64602;BME280;51013;42.630;23.192;2022-11-15T03:50:00;92761.38;;;1.50;87.27
64602;BME280;51013;42.630;23.192;2022-11-15T03:52:32;92585.63;;;0.35;87.28
64602;BME280;51013;42.630;23.192;2022-11-15T03:55:01;92695.41;;;1.03;87.54
64602;BME280;51013;42.630;23.192;2022-11-15T03:57:30;92761.88;;;1.52;87.78
64602;BME280;51013;42.630;23.192;2022-11-15T03:59:57;92756.97;;;1.51;87.10
64602;BME280;51013;42.630;23.192;2022-11-15T04:02:25;92751.53;;;1.52;87.14
64602;BME280;51013;42.630;23.192;2022-11-15T04:04:53;92753.06;;;1.53;87.10
64602;BME280;51013;42.630;23.192;2022-11-15T04:07:21;92720.03;;;1.40;87.31
64602;BME280;51013;42.630;23.192;2022-11-15T04:09:48;92737.75;;;1.57;87.04
64602;BME280;51013;42.630;23.192;2022-11-15T04:12:31;92529.97;;;0.09;86.80
64602;BME280;51013;42.630;23.192;2022-11-15T04:14:59;92741.19;;;1.47;87.29
64602;BME280;51013;42.630;23.192;2022-11-15T04:17:39;92744.84;;;1.46;87.07
64602;BME280;51013;42.630;23.192;2022-11-15T04:20:08;92644.09;;;0.76;87.38
64602;BME280;51013;42.630;23.192;2022-11-15T04:22:53;92740.69;;;1.45;87.29
64602;BME280;51013;42.630;23.192;2022-11-15T04:25:38;92724.97;;;1.36;86.30
64602;BME280;51013;42.630;23.192;2022-11-15T04:28:05;92622.72;;;0.65;86.07
64602;BME280;51013;42.630;23.192;2022-11-15T04:30:35;92742.50;;;1.45;85.97
64602;BME280;51013;42.630;23.192;2022-11-15T04:33:03;92749.53;;;1.39;86.86
64602;BME280;51013;42.630;23.192;2022-11-15T04:35:30;92461.28;;;-0.47;86.76
64602;BME280;51013;42.630;23.192;2022-11-15T04:37:57;92735.56;;;1.40;87.17
64602;BME280;51013;42.630;23.192;2022-11-15T04:40:24;92742.50;;;1.45;86.66
64602;BME280;51013;42.630;23.192;2022-11-15T04:42:51;92699.72;;;1.18;86.42
64602;BME280;51013;42.630;23.192;2022-11-15T04:45:18;92687.34;;;1.10;86.99
64602;BME280;51013;42.630;23.192;2022-11-15T04:47:46;92641.00;;;0.74;86.94
64602;BME280;51013;42.630;23.192;2022-11-15T04:50:15;92575.59;;;0.29;85.99
64602;BME280;51013;42.630;23.192;2022-11-15T04:52:44;92538.03;;;-0.03;85.84
64602;BME280;51013;42.630;23.192;2022-11-15T04:55:17;92757.59;;;1.32;86.95
64602;BME280;51013;42.630;23.192;2022-11-15T04:57:43;92543.47;;;-0.05;87.25
64602;BME280;51013;42.630;23.192;2022-11-15T05:00:14;92747.75;;;1.34;87.03
64602;BME280;51013;42.630;23.192;2022-11-15T05:02:41;92757.13;;;1.25;86.81
64602;BME280;51013;42.630;23.192;2022-11-15T05:05:27;92759.75;;;1.20;87.02
64602;BME280;51013;42.630;23.192;2022-11-15T05:07:53;92766.47;;;1.21;87.55
64602;BME280;51013;42.630;23.192;2022-11-15T05:10:21;92629.25;;;0.47;87.67
64602;BME280;51013;42.630;23.192;2022-11-15T05:12:48;92747.53;;;1.31;86.55
64602;BME280;51013;42.630;23.192;2022-11-15T05:15:16;92748.53;;;1.35;85.81
64602;BME280;51013;42.630;23.192;2022-11-15T05:17:43;92695.47;;;0.93;86.38
64602;BME280;51013;42.630;23.192;2022-11-15T05:20:10;92367.69;;;-1.23;86.44
64602;BME280;51013;42.630;23.192;2022-11-15T05:22:39;92701.88;;;1.06;86.29
64602;BME280;51013;42.630;23.192;2022-11-15T05:25:08;92719.38;;;1.19;86.08
64602;BME280;51013;42.630;23.192;2022-11-15T05:27:35;92743.63;;;1.33;85.88
64602;BME280;51013;42.630;23.192;2022-11-15T05:30:02;92729.16;;;1.27;85.83
64602;BME280;51013;42.630;23.192;2022-11-15T05:32:29;92744.72;;;1.22;86.51
64602;BME280;51013;42.630;23.192;2022-11-15T05:34:56;92647.25;;;0.63;86.45
64602;BME280;51013;42.630;23.192;2022-11-15T05:37:23;92627.94;;;0.50;87.38
64602;BME280;51013;42.630;23.192;2022-11-15T05:39:52;92574.66;;;0.09;86.98
64602;BME280;51013;42.630;23.192;2022-11-15T05:42:19;92686.16;;;0.92;87.70
64602;BME280;51013;42.630;23.192;2022-11-15T05:44:48;92739.50;;;1.27;87.52
64602;BME280;51013;42.630;23.192;2022-11-15T05:47:17;92718.91;;;1.12;87.64
64602;BME280;51013;42.630;23.192;2022-11-15T05:49:47;92693.19;;;0.86;87.71
64602;BME280;51013;42.630;23.192;2022-11-15T05:52:21;92745.44;;;1.33;87.73
64602;BME280;51013;42.630;23.192;2022-11-15T05:54:53;92744.91;;;1.36;87.93
64602;BME280;51013;42.630;23.192;2022-11-15T05:57:20;92747.25;;;1.32;87.86
64602;BME280;51013;42.630;23.192;2022-11-15T05:59:48;92747.78;;;1.29;88.35
64602;BME280;51013;42.630;23.192;2022-11-15T06:02:15;92667.91;;;0.73;88.45
64602;BME280;51013;42.630;23.192;2022-11-15T06:04:42;92751.34;;;1.38;88.62
64602;BME280;51013;42.630;23.192;2022-11-15T06:07:09;92760.66;;;1.39;88.91
64602;BME280;51013;42.630;23.192;2022-11-15T06:09:36;92764.56;;;1.37;88.85
64602;BME280;51013;42.630;23.192;2022-11-15T06:12:04;92673.00;;;0.83;88.72
64602;BME280;51013;42.630;23.192;2022-11-15T06:14:31;92759.88;;;1.44;88.61
64602;BME280;51013;42.630;23.192;2022-11-15T06:16:58;92483.69;;;-0.37;87.99
64602;BME280;51013;42.630;23.192;2022-11-15T06:19:25;92689.97;;;1.05;88.50
64602;BME280;51013;42.630;23.192;2022-11-15T06:21:54;92639.69;;;0.76;88.61
64602;BME280;51013;42.630;23.192;2022-11-15T06:24:21;92503.00;;;-0.19;88.54
64602;BME280;51013;42.630;23.192;2022-11-15T06:26:48;92625.28;;;0.65;89.00
64602;BME280;51013;42.630;23.192;2022-11-15T06:29:16;92563.97;;;0.26;88.93
64602;BME280;51013;42.630;23.192;2022-11-15T06:31:43;92677.78;;;1.10;89.00
64602;BME280;51013;42.630;23.192;2022-11-15T06:34:10;92563.59;;;0.48;89.40
64602;BME280;51013;42.630;23.192;2022-11-15T06:36:37;92750.38;;;1.69;90.34
64602;BME280;51013;42.630;23.192;2022-11-15T06:39:04;92701.03;;;1.50;91.07
64602;BME280;51013;42.630;23.192;2022-11-15T06:41:33;92712.81;;;1.66;92.59
64602;BME280;51013;42.630;23.192;2022-11-15T06:44:01;92738.00;;;1.95;92.41
64602;BME280;51013;42.630;23.192;2022-11-15T06:46:29;92741.84;;;1.97;92.54
64602;BME280;51013;42.630;23.192;2022-11-15T06:48:56;92693.91;;;1.66;92.75
64602;BME280;51013;42.630;23.192;2022-11-15T06:51:23;92732.88;;;2.14;93.06
64602;BME280;51013;42.630;23.192;2022-11-15T06:53:50;92724.03;;;2.15;93.26
64602;BME280;51013;42.630;23.192;2022-11-15T06:56:17;92670.16;;;1.88;93.56
64602;BME280;51013;42.630;23.192;2022-11-15T06:58:44;92689.84;;;2.13;93.98
64602;BME280;51013;42.630;23.192;2022-11-15T07:01:12;92725.84;;;2.44;94.70
64602;BME280;51013;42.630;23.192;2022-11-15T07:03:41;92726.53;;;2.49;95.36
64602;BME280;51013;42.630;23.192;2022-11-15T07:06:10;92724.06;;;2.63;96.20
64602;BME280;51013;42.630;23.192;2022-11-15T07:08:37;92722.94;;;2.69;96.70
64602;BME280;51013;42.630;23.192;2022-11-15T07:11:05;92697.88;;;2.59;97.74
64602;BME280;51013;42.630;23.192;2022-11-15T07:13:33;92629.22;;;2.33;98.58
64602;BME280;51013;42.630;23.192;2022-11-15T07:16:02;92711.16;;;3.01;99.44
64602;BME280;51013;42.630;23.192;2022-11-15T07:18:29;92700.69;;;3.06;100.00
64602;BME280;51013;42.630;23.192;2022-11-15T07:21:02;92625.94;;;2.70;100.00
64602;BME280;51013;42.630;23.192;2022-11-15T07:23:29;92715.84;;;3.37;100.00
64602;BME280;51013;42.630;23.192;2022-11-15T07:25:57;92692.75;;;3.35;100.00
64602;BME280;51013;42.630;23.192;2022-11-15T07:28:24;92588.75;;;2.75;100.00
64602;BME280;51013;42.630;23.192;2022-11-15T07:30:52;92714.94;;;3.79;100.00
64602;BME280;51013;42.630;23.192;2022-11-15T07:33:19;92492.47;;;2.44;100.00
64602;BME280;51013;42.630;23.192;2022-11-15T07:35:46;92708.03;;;3.89;100.00
64602;BME280;51013;42.630;23.192;2022-11-15T07:38:16;92691.47;;;3.85;100.00
64602;BME280;51013;42.630;23.192;2022-11-15T07:40:45;92719.16;;;4.08;99.89
64602;BME280;51013;42.630;23.192;2022-11-15T07:43:12;92626.03;;;3.50;99.28
64602;BME280;51013;42.630;23.192;2022-11-15T07:45:41;92720.44;;;4.25;99.29
64602;BME280;51013;42.630;23.192;2022-11-15T07:48:08;92726.97;;;4.36;99.64
64602;BME280;51013;42.630;23.192;2022-11-15T07:50:35;92723.53;;;4.40;100.00
64602;BME280;51013;42.630;23.192;2022-11-15T07:53:02;92727.56;;;4.47;100.00
64602;BME280;51013;42.630;23.192;2022-11-15T07:55:30;92729.22;;;4.56;99.79
64602;BME280;51013;42.630;23.192;2022-11-15T07:58:01;92677.28;;;4.37;99.37
64602;BME280;51013;42.630;23.192;2022-11-15T08:00:28;92715.34;;;4.75;99.06
64602;BME280;51013;42.630;23.192;2022-11-15T08:03:01;92668.59;;;4.56;98.96
64602;BME280;51013;42.630;23.192;2022-11-15T08:05:28;92579.63;;;4.04;98.83
64602;BME280;51013;42.630;23.192;2022-11-15T08:07:55;92715.88;;;5.13;98.46
64602;BME280;51013;42.630;23.192;2022-11-15T08:10:24;92718.44;;;5.27;97.82
64602;BME280;51013;42.630;23.192;2022-11-15T08:12:59;92710.09;;;5.39;97.56
64602;BME280;51013;42.630;23.192;2022-11-15T08:15:26;92706.19;;;5.50;96.92
64602;BME280;51013;42.630;23.192;2022-11-15T08:17:55;92577.41;;;4.75;96.89
64602;BME280;51013;42.630;23.192;2022-11-15T08:20:22;92704.25;;;5.78;96.85
64602;BME280;51013;42.630;23.192;2022-11-15T08:22:48;92708.13;;;5.90;97.61
64602;BME280;51013;42.630;23.192;2022-11-15T08:25:15;92647.63;;;5.70;96.90
64602;BME280;51013;42.630;23.192;2022-11-15T08:27:42;92698.69;;;6.16;96.30
64602;BME280;51013;42.630;23.192;2022-11-15T08:30:11;92670.09;;;6.11;95.34
64602;BME280;51013;42.630;23.192;2022-11-15T08:32:38;92669.53;;;6.23;95.52
64602;BME280;51013;42.630;23.192;2022-11-15T08:35:06;92693.44;;;6.48;94.83
64602;BME280;51013;42.630;23.192;2022-11-15T08:37:33;92647.75;;;6.28;94.36
64602;BME280;51013;42.630;23.192;2022-11-15T08:40:00;92667.63;;;6.46;94.51
64602;BME280;51013;42.630;23.192;2022-11-15T08:42:30;92664.72;;;6.56;94.15
64602;BME280;51013;42.630;23.192;2022-11-15T08:44:57;92676.63;;;6.89;94.19
64602;BME280;51013;42.630;23.192;2022-11-15T08:47:26;92674.06;;;7.06;93.68
64602;BME280;51013;42.630;23.192;2022-11-15T08:49:53;92621.97;;;6.84;92.96
64602;BME280;51013;42.630;23.192;2022-11-15T08:52:20;92672.84;;;7.30;92.75
64602;BME280;51013;42.630;23.192;2022-11-15T08:54:47;92613.06;;;7.02;92.48
64602;BME280;51013;42.630;23.192;2022-11-15T08:57:14;92672.38;;;7.45;91.44
64602;BME280;51013;42.630;23.192;2022-11-15T08:59:41;92672.25;;;7.50;91.49
64602;BME280;51013;42.630;23.192;2022-11-15T09:02:11;92636.09;;;7.43;91.58
64602;BME280;51013;42.630;23.192;2022-11-15T09:04:41;92651.47;;;7.62;90.36
64602;BME280;51013;42.630;23.192;2022-11-15T09:07:08;92625.94;;;7.42;90.70
64602;BME280;51013;42.630;23.192;2022-11-15T09:09:35;92651.31;;;7.59;90.43
64602;BME280;51013;42.630;23.192;2022-11-15T09:12:02;92607.50;;;7.38;91.05
64602;BME280;51013;42.630;23.192;2022-11-15T09:14:31;92489.25;;;6.59;90.46
64602;BME280;51013;42.630;23.192;2022-11-15T09:16:58;92615.78;;;7.58;90.47
64602;BME280;51013;42.630;23.192;2022-11-15T09:19:24;92646.03;;;7.85;90.28
64602;BME280;51013;42.630;23.192;2022-11-15T09:21:53;92499.66;;;6.94;89.81
64602;BME280;51013;42.630;23.192;2022-11-15T09:24:20;92614.19;;;7.74;89.44
64602;BME280;51013;42.630;23.192;2022-11-15T09:26:49;92609.13;;;7.78;89.08
64602;BME280;51013;42.630;23.192;2022-11-15T09:29:16;92632.03;;;7.90;89.13
64602;BME280;51013;42.630;23.192;2022-11-15T09:31:43;92624.94;;;7.90;89.70
64602;BME280;51013;42.630;23.192;2022-11-15T09:34:10;92603.13;;;7.77;89.52
64602;BME280;51013;42.630;23.192;2022-11-15T09:36:37;92626.44;;;8.00;88.92
64602;BME280;51013;42.630;23.192;2022-11-15T09:39:06;92624.13;;;8.07;89.24
64602;BME280;51013;42.630;23.192;2022-11-15T09:41:48;92572.47;;;7.87;89.05
64602;BME280;51013;42.630;23.192;2022-11-15T09:44:37;92607.75;;;8.19;89.20
64602;BME280;51013;42.630;23.192;2022-11-15T09:47:20;92604.31;;;8.27;88.30
64602;BME280;51013;42.630;23.192;2022-11-15T09:49:57;92607.59;;;8.24;88.74
64602;BME280;51013;42.630;23.192;2022-11-15T09:52:25;92605.88;;;8.28;88.08
64602;BME280;51013;42.630;23.192;2022-11-15T09:54:53;92607.53;;;8.33;88.63
64602;BME280;51013;42.630;23.192;2022-11-15T09:57:31;92601.94;;;8.52;88.85
64602;BME280;51013;42.630;23.192;2022-11-15T10:00:06;92517.53;;;7.95;86.70
64602;BME280;51013;42.630;23.192;2022-11-15T10:02:49;92597.03;;;8.50;86.82
64602;BME280;51013;42.630;23.192;2022-11-15T10:05:22;92592.81;;;8.58;86.77
64602;BME280;51013;42.630;23.192;2022-11-15T10:07:55;92576.91;;;8.63;86.31
64602;BME280;51013;42.630;23.192;2022-11-15T10:10:32;92590.53;;;8.77;85.82
64602;BME280;51013;42.630;23.192;2022-11-15T10:13:03;92591.25;;;8.87;85.46
64602;BME280;51013;42.630;23.192;2022-11-15T10:15:31;92542.56;;;8.65;85.04
64602;BME280;51013;42.630;23.192;2022-11-15T10:18:06;92582.09;;;9.14;84.80
64602;BME280;51013;42.630;23.192;2022-11-15T10:20:42;92578.78;;;9.26;83.36
64602;BME280;51013;42.630;23.192;2022-11-15T10:23:13;92518.31;;;9.10;82.24
64602;BME280;51013;42.630;23.192;2022-11-15T10:25:42;92476.66;;;8.96;81.42
64602;BME280;51013;42.630;23.192;2022-11-15T10:28:14;92556.25;;;9.58;80.72
64602;BME280;51013;42.630;23.192;2022-11-15T10:30:43;92549.41;;;9.66;79.31
64602;BME280;51013;42.630;23.192;2022-11-15T10:33:17;92560.69;;;9.78;78.87
64602;BME280;51013;42.630;23.192;2022-11-15T10:35:45;92553.59;;;9.91;79.03
64602;BME280;51013;42.630;23.192;2022-11-15T10:38:12;92547.50;;;10.12;78.08
64602;BME280;51013;42.630;23.192;2022-11-15T10:40:40;92540.38;;;10.25;78.07
64602;BME280;51013;42.630;23.192;2022-11-15T10:43:18;92368.50;;;9.20;76.29
64602;BME280;51013;42.630;23.192;2022-11-15T10:45:46;92525.81;;;10.52;75.45
64602;BME280;51013;42.630;23.192;2022-11-15T10:48:21;92528.44;;;10.64;74.25
64602;BME280;51013;42.630;23.192;2022-11-15T10:50:50;92524.41;;;10.67;73.42
64602;BME280;51013;42.630;23.192;2022-11-15T10:53:24;92517.56;;;10.78;71.79
64602;BME280;51013;42.630;23.192;2022-11-15T10:55:54;92530.25;;;10.88;70.75
64602;BME280;51013;42.630;23.192;2022-11-15T10:58:32;92510.72;;;11.01;71.41
64602;BME280;51013;42.630;23.192;2022-11-15T11:01:12;92443.16;;;10.61;71.25
64602;BME280;51013;42.630;23.192;2022-11-15T11:03:41;92493.78;;;10.87;70.05
64602;BME280;51013;42.630;23.192;2022-11-15T11:06:11;92514.44;;;11.00;70.69
64602;BME280;51013;42.630;23.192;2022-11-15T11:08:39;92500.28;;;10.77;71.33
64602;BME280;51013;42.630;23.192;2022-11-15T11:11:06;92514.44;;;11.00;70.67
64602;BME280;51013;42.630;23.192;2022-11-15T11:13:37;92426.44;;;10.54;71.02
64602;BME280;51013;42.630;23.192;2022-11-15T11:16:28;92499.38;;;11.13;70.52
64602;BME280;51013;42.630;23.192;2022-11-15T11:19:13;92475.53;;;11.06;70.21
64602;BME280;51013;42.630;23.192;2022-11-15T11:21:49;92381.56;;;10.59;70.00
64602;BME280;51013;42.630;23.192;2022-11-15T11:24:21;92493.75;;;11.43;70.86
64602;BME280;51013;42.630;23.192;2022-11-15T11:27:03;92411.06;;;10.96;71.16
64602;BME280;51013;42.630;23.192;2022-11-15T11:29:49;92489.88;;;11.53;70.41
64602;BME280;51013;42.630;23.192;2022-11-15T11:32:40;92475.78;;;11.61;70.38
64602;BME280;51013;42.630;23.192;2022-11-15T11:35:17;92225.44;;;10.00;69.65
64602;BME280;51013;42.630;23.192;2022-11-15T11:38:03;92467.66;;;11.66;68.87
64602;BME280;51013;42.630;23.192;2022-11-15T11:40:38;92435.47;;;11.57;69.76
64602;BME280;51013;42.630;23.192;2022-11-15T11:43:12;92466.53;;;11.83;69.10
64602;BME280;51013;42.630;23.192;2022-11-15T11:45:53;92383.88;;;11.36;68.43
64602;BME280;51013;42.630;23.192;2022-11-15T11:48:40;92403.66;;;11.46;68.16
64602;BME280;51013;42.630;23.192;2022-11-15T11:51:12;92446.94;;;11.65;68.98
64602;BME280;51013;42.630;23.192;2022-11-15T11:53:44;92442.28;;;11.58;69.36
64602;BME280;51013;42.630;23.192;2022-11-15T11:56:18;92450.31;;;11.81;68.50
64602;BME280;51013;42.630;23.192;2022-11-15T11:58:48;92437.00;;;11.90;68.85
64602;BME280;51013;42.630;23.192;2022-11-15T12:01:22;92444.31;;;11.96;68.34
64602;BME280;51013;42.630;23.192;2022-11-15T12:03:54;92388.00;;;11.85;67.87
64602;BME280;51013;42.630;23.192;2022-11-15T12:06:41;92405.06;;;12.07;68.23
64602;BME280;51013;42.630;23.192;2022-11-15T12:09:14;92426.38;;;12.37;67.34
64602;BME280;51013;42.630;23.192;2022-11-15T12:11:49;92412.25;;;12.46;66.59
64602;BME280;51013;42.630;23.192;2022-11-15T12:14:25;92412.59;;;12.63;66.45
64602;BME280;51013;42.630;23.192;2022-11-15T12:16:55;92410.72;;;12.83;65.23
64602;BME280;51013;42.630;23.192;2022-11-15T12:19:23;92383.81;;;12.74;64.83
64602;BME280;51013;42.630;23.192;2022-11-15T12:21:54;92409.88;;;12.99;64.63
64602;BME280;51013;42.630;23.192;2022-11-15T12:24:26;92408.59;;;13.12;64.35
64602;BME280;51013;42.630;23.192;2022-11-15T12:26:59;92364.94;;;12.92;64.04
64602;BME280;51013;42.630;23.192;2022-11-15T12:29:32;92376.88;;;13.09;63.60
64602;BME280;51013;42.630;23.192;2022-11-15T12:32:01;92402.28;;;13.36;64.26
64602;BME280;51013;42.630;23.192;2022-11-15T12:34:36;92398.56;;;13.41;62.37
64602;BME280;51013;42.630;23.192;2022-11-15T12:40:36;92387.97;;;13.60;61.46
64602;BME280;51013;42.630;23.192;2022-11-15T12:43:36;92386.88;;;13.65;62.59
64602;BME280;51013;42.630;23.192;2022-11-15T12:46:05;92383.09;;;13.62;63.02
64602;BME280;51013;42.630;23.192;2022-11-15T12:48:59;92372.13;;;13.60;61.92
64602;BME280;51013;42.630;23.192;2022-11-15T12:55:02;92374.25;;;13.78;62.68
64602;BME280;51013;42.630;23.192;2022-11-15T12:57:49;92329.41;;;13.55;62.35
64602;BME280;51013;42.630;23.192;2022-11-15T13:00:43;92366.31;;;13.78;62.71
64602;BME280;51013;42.630;23.192;2022-11-15T13:03:27;92342.44;;;13.44;62.89
64602;BME280;51013;42.630;23.192;2022-11-15T13:06:05;92360.16;;;13.70;61.74
64602;BME280;51013;42.630;23.192;2022-11-15T13:08:46;92315.34;;;13.24;62.87
64602;BME280;51013;42.630;23.192;2022-11-15T13:11:52;92359.72;;;13.65;62.94
64602;BME280;51013;42.630;23.192;2022-11-15T13:14:52;92359.69;;;13.61;62.35
64602;BME280;51013;42.630;23.192;2022-11-15T13:17:36;92355.81;;;13.55;62.67
64602;BME280;51013;42.630;23.192;2022-11-15T13:20:18;92353.53;;;13.53;62.89
64602;BME280;51013;42.630;23.192;2022-11-15T13:22:49;92355.34;;;13.49;63.37
64602;BME280;51013;42.630;23.192;2022-11-15T13:25:52;92352.16;;;13.40;63.00
64602;BME280;51013;42.630;23.192;2022-11-15T13:28:27;92360.63;;;13.26;63.53